Dabo Airport


Codes: WIDS/SIQ
Name: Dabo Airport
City: Pasirkuning-Singkep Island
Country: Indonesia
Elevation: 95 ft.

Photos at Dabo Airport


   Photos courtesy of SpottingLog. You can add your own sightings and photos by signing up for a free trial today.



No photos found.

Weather at Dabo Airport


Time (UTC)DescriptionTempratureWindCloud coverageVisibilityPressureHumidity
25-Jun-2024 12:00Scattered Clouds27°C7 mph, SE33%10000m1008hPa82%
25-Jun-2024 15:00Scattered Clouds27°C7 mph, SE39%10000m1008hPa83%
25-Jun-2024 18:00Light Rain27°C7 mph, SE52%10000m1008hPa84%
25-Jun-2024 21:00Light Rain27°C7 mph, SE27%10000m1008hPa84%
26-Jun-2024 00:00Light Rain27°C7 mph, SE46%10000m1009hPa86%
26-Jun-2024 03:00Light Rain30°C7 mph, SE84%10000m1009hPa70%
26-Jun-2024 06:00Light Rain29°C7 mph, SE87%10000m1007hPa71%
26-Jun-2024 09:00Light Rain29°C4 mph, SE64%10000m1006hPa71%
26-Jun-2024 12:00Broken Clouds27°C4 mph, E62%10000m1008hPa82%
26-Jun-2024 15:00Overcast Clouds27°C4 mph, E100%10000m1010hPa82%
26-Jun-2024 18:00Overcast Clouds27°C4 mph, E100%10000m1009hPa82%
26-Jun-2024 21:00Light Rain26°C4 mph, E100%10000m1008hPa85%
27-Jun-2024 00:00Light Rain27°C4 mph, E86%10000m1010hPa84%
27-Jun-2024 03:00Scattered Clouds31°C7 mph, E48%10000m1011hPa63%
27-Jun-2024 06:00Light Rain31°C7 mph, SE50%10000m1009hPa63%
27-Jun-2024 09:00Light Rain30°C7 mph, E59%10000m1007hPa65%
27-Jun-2024 12:00Broken Clouds27°C4 mph, E59%10000m1009hPa76%
27-Jun-2024 15:00Overcast Clouds27°C4 mph, E88%10000m1011hPa75%
27-Jun-2024 18:00Overcast Clouds27°C4 mph, E91%10000m1010hPa76%
27-Jun-2024 21:00Overcast Clouds27°C4 mph, E98%10000m1009hPa78%
28-Jun-2024 00:00Light Rain27°C4 mph, SE96%10000m1011hPa79%
28-Jun-2024 03:00Light Rain30°C7 mph, SE97%10000m1011hPa64%
28-Jun-2024 06:00Light Rain30°C9 mph, SE95%10000m1009hPa66%
28-Jun-2024 09:00Light Rain30°C7 mph, SE79%10000m1008hPa65%
28-Jun-2024 12:00Overcast Clouds27°C4 mph, SE85%10000m1010hPa77%
28-Jun-2024 15:00Scattered Clouds27°C4 mph, SE43%10000m1011hPa78%
28-Jun-2024 18:00Broken Clouds27°C4 mph, SE64%10000m1010hPa80%
28-Jun-2024 21:00Overcast Clouds27°C4 mph, SE95%10000m1009hPa79%
29-Jun-2024 00:00Broken Clouds28°C7 mph, S79%10000m1010hPa79%
29-Jun-2024 03:00Light Rain28°C9 mph, S68%10000m1011hPa81%
29-Jun-2024 06:00Light Rain29°C9 mph, S78%10000m1009hPa73%
29-Jun-2024 09:00Light Rain27°C4 mph, SE100%10000m1009hPa83%
29-Jun-2024 12:00Light Rain26°C7 mph, SE100%10000m1010hPa88%
29-Jun-2024 15:00Light Rain26°C7 mph, SE100%10000m1011hPa87%
29-Jun-2024 18:00Light Rain26°C4 mph, SE100%10000m1010hPa79%
29-Jun-2024 21:00Light Rain26°C7 mph, SE93%10000m1009hPa85%
30-Jun-2024 00:00Light Rain26°C9 mph, SE97%8942m1011hPa86%
30-Jun-2024 03:00Light Rain28°C9 mph, SE100%10000m1011hPa78%
30-Jun-2024 06:00Light Rain29°C9 mph, SE98%10000m1010hPa70%
30-Jun-2024 09:00Light Rain29°C7 mph, SE95%10000m1009hPa66%